Terminal Aerodrome Forecast
Issued by NWS

Home | Current Version | Previous Version | Graphics & Text | Print | Product List | Glossary On
Versions: 1 2 3 4 5 6 7 8 9 10 11 12 13 14 15 16 17 18 19 20 21 22 23 24
000
FTUS43 KBIS 190726 AAA
TAFDIK
TAF AMD
KDIK 190726Z 1907/2006 08006KT 5SM BR SCT130 BKN200
     FM190800 10005KT P6SM VCFG SCT090 BKN110
     FM191200 14004KT P6SM BKN200
     FM191700 16007KT P6SM SCT250
     FM200300 22005KT P6SM BKN150=

USA.gov is the U.S. government's official web portal to all federal, state and local government web resources and services.